Time;durP1;ratioP1;P1;durP2;ratioP2;P2;SDS_P1;SDS_P2;PMS_P1;PMS_P2;Temp;Humidity;BMP_temperature;BMP_pressure;BME280_temperature;BME280_humidity;BME280_pressure;Samples;Min_cycle;Max_cycle;Signal;HPM_P1;HPM_P2
2023/06/12 00:00:45;;;;;;;5.43;2.47;;;;;;;;;;4944118;28;20110;-46
2023/06/12 00:03:12;;;;;;;10.45;2.58;;;;;;;;;;4951200;28;20519;-48
2023/06/12 00:05:41;;;;;;;5.70;2.67;;;;;;;;;;4949510;28;20045;-46
2023/06/12 00:08:08;;;;;;;7.15;2.85;;;;;;;;;;4945825;28;20055;-48
2023/06/12 00:10:34;;;;;;;12.18;2.95;;;;;;;;;;4947098;28;20083;-52
2023/06/12 00:13:00;;;;;;;9.63;2.72;;;;;;;;;;4947022;28;20404;-49
2023/06/12 00:15:26;;;;;;;6.28;2.75;;;;;;;;;;4948242;28;20031;-49
2023/06/12 00:17:51;;;;;;;3.80;2.47;;;;;;;;;;4945476;28;20047;-47
2023/06/12 00:20:16;;;;;;;5.70;2.20;;;;;;;;;;4946040;28;20032;-47
2023/06/12 00:22:43;;;;;;;3.95;2.95;;;;;;;;;;4949100;28;20079;-45
2023/06/12 00:25:09;;;;;;;9.27;2.40;;;;;;;;;;4946773;28;20023;-45
2023/06/12 00:27:35;;;;;;;5.18;2.60;;;;;;;;;;4945616;28;20098;-49
2023/06/12 00:30:01;;;;;;;3.58;2.42;;;;;;;;;;4945847;28;20115;-46
2023/06/12 00:32:26;;;;;;;2.97;2.15;;;;;;;;;;4946994;28;20445;-45
2023/06/12 00:34:51;;;;;;;5.22;2.30;;;;;;;;;;4946769;28;20023;-46
2023/06/12 00:37:17;;;;;;;3.03;2.22;;;;;;;;;;4943710;28;20687;-48
2023/06/12 00:39:44;;;;;;;4.90;1.95;;;;;;;;;;4945675;28;20036;-47
2023/06/12 00:42:10;;;;;;;3.45;2.40;;;;;;;;;;4946721;28;20043;-46
2023/06/12 00:44:35;;;;;;;7.72;2.22;;;;;;;;;;4947670;28;20031;-46
2023/06/12 00:47:02;;;;;;;4.15;2.85;;;;;;;;;;4946818;28;20043;-47
2023/06/12 00:49:27;;;;;;;2.65;2.45;;;;;;;;;;4949035;28;20024;-51
2023/06/12 00:51:55;;;;;;;3.13;2.58;;;;;;;;;;4942099;28;20047;-46
2023/06/12 00:54:21;;;;;;;3.30;2.50;;;;;;;;;;4945395;28;20155;-48
2023/06/12 00:56:48;;;;;;;6.22;2.60;;;;;;;;;;4945176;28;21144;-52
2023/06/12 00:59:13;;;;;;;7.07;2.72;;;;;;;;;;4947029;28;20025;-47
2023/06/12 01:01:39;;;;;;;11.10;3.00;;;;;;;;;;4947523;28;20039;-46
2023/06/12 01:04:04;;;;;;;6.38;2.50;;;;;;;;;;4925494;29;20069;-45
2023/06/12 01:06:55;;;;;;;5.45;2.40;;;;;;;;;;4947176;28;20039;-45
2023/06/12 01:09:20;;;;;;;5.55;2.50;;;;;;;;;;4946790;28;20035;-45
2023/06/12 01:11:48;;;;;;;3.63;2.55;;;;;;;;;;4942745;28;21543;-45
2023/06/12 01:14:17;;;;;;;2.90;2.22;;;;;;;;;;4948439;28;20074;-45
2023/06/12 01:16:44;;;;;;;5.28;2.67;;;;;;;;;;4946897;28;20040;-47
2023/06/12 01:19:11;;;;;;;4.13;2.53;;;;;;;;;;4950674;28;20031;-45
2023/06/12 01:21:39;;;;;;;4.82;2.55;;;;;;;;;;4929247;29;20039;-46
2023/06/12 01:24:20;;;;;;;5.80;2.45;;;;;;;;;;4941980;28;20062;-45
2023/06/12 01:26:57;;;;;;;6.53;3.42;;;;;;;;;;4943354;28;20090;-45
2023/06/12 01:29:50;;;;;;;7.28;2.50;;;;;;;;;;4948832;28;20028;-45
2023/06/12 01:32:16;;;;;;;15.57;2.97;;;;;;;;;;4947654;28;20067;-45
2023/06/12 01:34:50;;;;;;;5.45;2.60;;;;;;;;;;4946824;28;20046;-45
2023/06/12 01:37:32;;;;;;;6.70;2.40;;;;;;;;;;4947080;28;20043;-45
2023/06/12 01:40:00;;;;;;;4.70;2.60;;;;;;;;;;4946716;28;20487;-49
2023/06/12 01:42:27;;;;;;;4.68;2.55;;;;;;;;;;4943249;28;20398;-45
2023/06/12 01:44:53;;;;;;;5.50;2.65;;;;;;;;;;4941760;28;20133;-46
2023/06/12 01:47:22;;;;;;;3.60;2.40;;;;;;;;;;4943592;28;20587;-51
2023/06/12 01:49:48;;;;;;;6.85;2.60;;;;;;;;;;4929084;28;20035;-45
2023/06/12 01:52:13;;;;;;;3.83;2.80;;;;;;;;;;4944339;28;20048;-49
2023/06/12 01:54:40;;;;;;;3.95;3.20;;;;;;;;;;4946510;28;20030;-45
2023/06/12 01:57:07;;;;;;;5.50;3.08;;;;;;;;;;4944153;28;20141;-45
2023/06/12 01:59:34;;;;;;;4.28;2.70;;;;;;;;;;4942580;28;20078;-48
2023/06/12 02:02:02;;;;;;;5.30;2.90;;;;;;;;;;4946804;28;20090;-47
2023/06/12 02:04:31;;;;;;;4.28;3.17;;;;;;;;;;4943270;28;20118;-50
2023/06/12 02:06:56;;;;;;;4.15;2.35;;;;;;;;;;4943159;28;20039;-49
2023/06/12 02:09:22;;;;;;;7.53;3.13;;;;;;;;;;4943635;28;20384;-53
2023/06/12 02:11:48;;;;;;;2.63;2.42;;;;;;;;;;4945226;28;20055;-48
2023/06/12 02:14:13;;;;;;;3.63;2.95;;;;;;;;;;4944384;28;20035;-45
2023/06/12 02:16:39;;;;;;;4.43;2.65;;;;;;;;;;4942895;28;20066;-45
2023/06/12 02:19:04;;;;;;;6.32;3.25;;;;;;;;;;4943023;28;20023;-45
2023/06/12 02:21:30;;;;;;;10.30;2.50;;;;;;;;;;4945728;28;20069;-47
2023/06/12 02:23:55;;;;;;;3.08;2.88;;;;;;;;;;4940497;28;20036;-46
2023/06/12 02:26:20;;;;;;;6.07;2.92;;;;;;;;;;4947359;28;20063;-49
2023/06/12 02:29:04;;;;;;;4.72;2.60;;;;;;;;;;4941745;28;20031;-50
2023/06/12 02:31:30;;;;;;;9.43;3.10;;;;;;;;;;4941456;28;20039;-45
2023/06/12 02:33:55;;;;;;;2.75;2.55;;;;;;;;;;4940980;28;20023;-46
2023/06/12 02:36:20;;;;;;;5.20;2.63;;;;;;;;;;4945512;28;20071;-45
2023/06/12 02:38:46;;;;;;;6.20;2.60;;;;;;;;;;4940461;28;20497;-46
2023/06/12 02:41:12;;;;;;;5.50;2.78;;;;;;;;;;4944980;28;20035;-47
2023/06/12 02:43:38;;;;;;;3.40;2.67;;;;;;;;;;4947912;28;20130;-48
2023/06/12 02:46:03;;;;;;;4.32;2.63;;;;;;;;;;4944819;28;20073;-49
2023/06/12 02:48:29;;;;;;;6.53;3.00;;;;;;;;;;4943284;28;20480;-47
2023/06/12 02:50:54;;;;;;;4.50;2.83;;;;;;;;;;4941964;28;20065;-51
2023/06/12 02:53:19;;;;;;;5.72;2.83;;;;;;;;;;4943869;28;20071;-49
2023/06/12 02:55:45;;;;;;;16.33;2.92;;;;;;;;;;4947090;28;20027;-47
2023/06/12 02:58:10;;;;;;;4.82;2.80;;;;;;;;;;4945851;28;20047;-45
2023/06/12 03:00:36;;;;;;;3.30;2.58;;;;;;;;;;4943022;28;20059;-45
2023/06/12 03:03:02;;;;;;;5.22;2.50;;;;;;;;;;4941925;28;20042;-46
2023/06/12 03:05:28;;;;;;;4.63;2.45;;;;;;;;;;4943539;28;20559;-45
2023/06/12 03:07:54;;;;;;;5.93;2.65;;;;;;;;;;4942629;28;20122;-47
2023/06/12 03:10:20;;;;;;;3.42;2.90;;;;;;;;;;4943000;28;20027;-45
2023/06/12 03:12:45;;;;;;;2.92;2.58;;;;;;;;;;4943848;28;20618;-46
2023/06/12 03:15:14;;;;;;;8.40;3.47;;;;;;;;;;4941893;28;20039;-47
2023/06/12 03:17:40;;;;;;;3.00;2.75;;;;;;;;;;4943879;28;20031;-47
2023/06/12 03:20:07;;;;;;;4.45;2.95;;;;;;;;;;4943263;28;20110;-45
2023/06/12 03:22:33;;;;;;;3.03;2.80;;;;;;;;;;4938495;28;20036;-46
2023/06/12 03:24:58;;;;;;;3.60;2.53;;;;;;;;;;4944274;28;20101;-47
2023/06/12 03:27:25;;;;;;;4.90;2.88;;;;;;;;;;4942652;28;20062;-46
2023/06/12 03:29:50;;;;;;;5.95;2.85;;;;;;;;;;4944409;28;20128;-47
2023/06/12 03:32:16;;;;;;;5.68;2.63;;;;;;;;;;4943573;28;20044;-49
2023/06/12 03:34:42;;;;;;;2.88;2.55;;;;;;;;;;4940904;28;20028;-51
2023/06/12 03:37:07;;;;;;;5.82;2.58;;;;;;;;;;4941400;28;20059;-48
2023/06/12 03:39:33;;;;;;;4.07;2.85;;;;;;;;;;4942240;28;20070;-46
2023/06/12 03:41:58;;;;;;;3.40;2.60;;;;;;;;;;4940659;28;20063;-45
2023/06/12 03:44:24;;;;;;;4.80;2.67;;;;;;;;;;4938863;28;20031;-45
2023/06/12 03:46:50;;;;;;;3.30;2.55;;;;;;;;;;4942243;28;20086;-45
2023/06/12 03:49:15;;;;;;;3.45;2.80;;;;;;;;;;4941440;28;20042;-45
2023/06/12 03:51:42;;;;;;;6.50;2.83;;;;;;;;;;4942508;28;20366;-45
2023/06/12 03:54:07;;;;;;;4.10;2.90;;;;;;;;;;4942779;28;20031;-47
2023/06/12 03:56:33;;;;;;;6.03;2.53;;;;;;;;;;4943165;28;20044;-48
2023/06/12 03:58:58;;;;;;;4.85;2.63;;;;;;;;;;4939129;28;20031;-47
2023/06/12 04:01:24;;;;;;;3.33;2.50;;;;;;;;;;4941230;28;20039;-44
2023/06/12 04:03:49;;;;;;;2.70;2.50;;;;;;;;;;4944786;28;20429;-48
2023/06/12 04:06:15;;;;;;;5.38;2.70;;;;;;;;;;4950625;28;20481;-46
2023/06/12 04:08:40;;;;;;;4.35;2.63;;;;;;;;;;4944898;28;20039;-49
2023/06/12 04:11:09;;;;;;;3.90;2.50;;;;;;;;;;4947118;28;20042;-51
2023/06/12 04:13:35;;;;;;;4.28;2.38;;;;;;;;;;4942874;28;20524;-53
2023/06/12 04:16:00;;;;;;;3.20;2.80;;;;;;;;;;4944646;28;20440;-52
2023/06/12 04:18:26;;;;;;;6.55;2.47;;;;;;;;;;4941458;28;20027;-50
2023/06/12 04:20:51;;;;;;;4.97;2.58;;;;;;;;;;4945221;28;20031;-45
2023/06/12 04:23:17;;;;;;;3.83;2.58;;;;;;;;;;4943984;28;20066;-45
2023/06/12 04:25:44;;;;;;;5.22;2.80;;;;;;;;;;4925933;29;20031;-46
2023/06/12 04:28:13;;;;;;;5.90;2.58;;;;;;;;;;4942653;28;20043;-45
2023/06/12 04:30:41;;;;;;;2.80;2.60;;;;;;;;;;4940080;28;20043;-45
2023/06/12 04:33:07;;;;;;;6.00;2.70;;;;;;;;;;4937506;28;20040;-46
2023/06/12 04:35:34;;;;;;;2.70;2.50;;;;;;;;;;4938478;28;20110;-46
2023/06/12 04:37:59;;;;;;;5.00;2.80;;;;;;;;;;4941718;28;20445;-46
2023/06/12 04:40:26;;;;;;;2.70;2.50;;;;;;;;;;4948890;28;20039;-43
2023/06/12 04:42:56;;;;;;;4.78;2.58;;;;;;;;;;4945116;28;20087;-50
2023/06/12 04:45:22;;;;;;;4.03;2.78;;;;;;;;;;4948076;28;20042;-45
2023/06/12 04:47:48;;;;;;;3.45;2.65;;;;;;;;;;4943559;28;20528;-45
2023/06/12 04:50:13;;;;;;;3.28;2.40;;;;;;;;;;4948720;28;20078;-47
2023/06/12 04:52:40;;;;;;;7.20;2.58;;;;;;;;;;4947186;28;20036;-50
2023/06/12 04:55:08;;;;;;;5.60;2.70;;;;;;;;;;4949381;28;20024;-50
2023/06/12 04:57:36;;;;;;;3.03;2.80;;;;;;;;;;4947353;28;20039;-49
2023/06/12 05:00:05;;;;;;;5.07;2.60;;;;;;;;;;4927863;29;20027;-50
2023/06/12 05:02:33;;;;;;;3.53;2.85;;;;;;;;;;4947552;28;20067;-50
2023/06/12 05:05:00;;;;;;;3.00;2.70;;;;;;;;;;4947152;28;20125;-46
2023/06/12 05:07:25;;;;;;;3.28;2.90;;;;;;;;;;4945088;28;20504;-45
2023/06/12 05:09:51;;;;;;;3.17;2.97;;;;;;;;;;4942504;28;20079;-45
2023/06/12 05:12:16;;;;;;;8.07;3.20;;;;;;;;;;4945233;28;20517;-45
2023/06/12 05:14:45;;;;;;;5.63;2.60;;;;;;;;;;4942204;28;20393;-45
2023/06/12 05:17:11;;;;;;;4.78;2.70;;;;;;;;;;4947038;28;20823;-46
2023/06/12 05:19:40;;;;;;;3.13;2.83;;;;;;;;;;4947533;28;20074;-47
2023/06/12 05:22:05;;;;;;;3.10;2.80;;;;;;;;;;4947605;28;20067;-50
2023/06/12 05:24:31;;;;;;;6.05;2.50;;;;;;;;;;4926804;29;20485;-47
2023/06/12 05:26:57;;;;;;;3.47;2.60;;;;;;;;;;4942070;28;20046;-51
2023/06/12 05:29:22;;;;;;;5.15;3.00;;;;;;;;;;4938455;28;20031;-45
2023/06/12 05:31:47;;;;;;;5.32;3.13;;;;;;;;;;4938624;28;20047;-48
2023/06/12 05:34:13;;;;;;;4.18;2.50;;;;;;;;;;4941377;28;20039;-46
2023/06/12 05:36:38;;;;;;;4.63;2.25;;;;;;;;;;4942733;28;20063;-51
2023/06/12 05:39:04;;;;;;;4.55;2.15;;;;;;;;;;4941814;28;20039;-49
2023/06/12 05:41:30;;;;;;;3.13;2.40;;;;;;;;;;4944889;28;20039;-52
2023/06/12 05:43:56;;;;;;;5.18;2.30;;;;;;;;;;4941279;28;20062;-50
2023/06/12 05:46:21;;;;;;;3.30;2.38;;;;;;;;;;4938701;28;20071;-47
2023/06/12 05:48:48;;;;;;;4.28;2.50;;;;;;;;;;4941722;28;20374;-48
2023/06/12 05:51:14;;;;;;;2.60;2.40;;;;;;;;;;4942447;28;20067;-48
2023/06/12 05:53:39;;;;;;;3.70;2.55;;;;;;;;;;4946212;28;20071;-48
2023/06/12 05:56:05;;;;;;;2.47;2.28;;;;;;;;;;4938587;28;20027;-45
2023/06/12 05:58:31;;;;;;;6.47;4.93;;;;;;;;;;4939240;28;20070;-50
2023/06/12 06:00:56;;;;;;;8.68;2.33;;;;;;;;;;4943327;28;20062;-46
2023/06/12 06:03:23;;;;;;;5.07;2.63;;;;;;;;;;4937536;28;20050;-46
2023/06/12 06:05:49;;;;;;;2.53;2.33;;;;;;;;;;4941757;28;20027;-48
2023/06/12 06:08:15;;;;;;;2.63;2.45;;;;;;;;;;4942544;28;20110;-45
2023/06/12 06:10:40;;;;;;;2.40;2.20;;;;;;;;;;4940273;28;20035;-46
2023/06/12 06:13:07;;;;;;;3.55;2.33;;;;;;;;;;4940552;28;20123;-49
2023/06/12 06:15:32;;;;;;;5.90;2.20;;;;;;;;;;4945943;28;20134;-46
2023/06/12 06:17:57;;;;;;;6.00;2.53;;;;;;;;;;4943988;28;20073;-50
2023/06/12 06:20:23;;;;;;;2.45;2.25;;;;;;;;;;4943409;28;20472;-51
2023/06/12 06:22:49;;;;;;;4.45;2.15;;;;;;;;;;4944790;28;20090;-48
2023/06/12 06:25:15;;;;;;;6.72;1.77;;;;;;;;;;4944583;28;20050;-50
2023/06/12 06:27:41;;;;;;;2.80;1.80;;;;;;;;;;4946635;28;20032;-45
2023/06/12 06:30:06;;;;;;;2.10;1.88;;;;;;;;;;4944241;28;20027;-49
2023/06/12 06:32:32;;;;;;;2.20;1.90;;;;;;;;;;4939744;28;20043;-49
2023/06/12 06:34:57;;;;;;;1.88;1.77;;;;;;;;;;4947788;28;20023;-49
2023/06/12 06:37:22;;;;;;;8.75;3.25;;;;;;;;;;4941509;28;20035;-45
2023/06/12 06:39:48;;;;;;;5.22;2.20;;;;;;;;;;4944752;28;20377;-48
2023/06/12 06:42:13;;;;;;;1.90;1.80;;;;;;;;;;4941402;28;20055;-47
2023/06/12 06:44:38;;;;;;;2.35;1.98;;;;;;;;;;4945177;28;20538;-45
2023/06/12 06:47:04;;;;;;;7.10;2.58;;;;;;;;;;4943545;28;20557;-45
2023/06/12 06:49:30;;;;;;;2.05;1.83;;;;;;;;;;4949189;28;20074;-47
2023/06/12 06:51:56;;;;;;;3.38;1.90;;;;;;;;;;4943917;28;20044;-52
2023/06/12 06:54:21;;;;;;;3.05;1.77;;;;;;;;;;4924249;29;20044;-48
2023/06/12 06:56:48;;;;;;;3.72;1.77;;;;;;;;;;4942078;28;20392;-46
2023/06/12 06:59:15;;;;;;;4.65;1.88;;;;;;;;;;4943862;28;20030;-51
2023/06/12 07:01:40;;;;;;;2.72;2.30;;;;;;;;;;4942033;28;20047;-50
2023/06/12 07:04:06;;;;;;;6.65;1.88;;;;;;;;;;4943772;28;20499;-45
2023/06/12 07:06:33;;;;;;;4.03;2.20;;;;;;;;;;4939754;28;20059;-46
2023/06/12 07:08:59;;;;;;;2.90;1.90;;;;;;;;;;4943857;28;20023;-45
2023/06/12 07:11:24;;;;;;;2.63;1.75;;;;;;;;;;4941177;28;20511;-48
2023/06/12 07:13:50;;;;;;;8.30;1.83;;;;;;;;;;4942271;28;20086;-50
2023/06/12 07:16:15;;;;;;;2.63;1.80;;;;;;;;;;4942558;28;20114;-45
2023/06/12 07:18:41;;;;;;;3.35;1.52;;;;;;;;;;4946120;28;20035;-47
2023/06/12 07:21:06;;;;;;;2.78;1.67;;;;;;;;;;4943479;28;20039;-42
2023/06/12 07:23:31;;;;;;;4.80;1.80;;;;;;;;;;4938555;28;20043;-46
2023/06/12 07:25:57;;;;;;;1.77;1.60;;;;;;;;;;4945231;28;20035;-47
2023/06/12 07:28:22;;;;;;;3.28;1.75;;;;;;;;;;4943506;28;20567;-50
2023/06/12 07:30:47;;;;;;;3.03;1.80;;;;;;;;;;4945530;28;20027;-49
2023/06/12 07:33:14;;;;;;;5.50;1.90;;;;;;;;;;4942969;28;20035;-52
2023/06/12 07:35:40;;;;;;;3.17;1.98;;;;;;;;;;4944092;28;20044;-45
2023/06/12 07:38:05;;;;;;;5.47;1.42;;;;;;;;;;4944413;28;20514;-48
2023/06/12 07:40:31;;;;;;;1.88;1.77;;;;;;;;;;4939067;28;20370;-46
2023/06/12 07:42:56;;;;;;;4.22;1.83;;;;;;;;;;4938125;28;20975;-47
2023/06/12 07:45:21;;;;;;;6.57;1.70;;;;;;;;;;4944326;28;20500;-45
2023/06/12 07:47:49;;;;;;;3.55;1.88;;;;;;;;;;4942064;28;20054;-50
2023/06/12 07:50:15;;;;;;;1.85;1.75;;;;;;;;;;4944658;28;20035;-46
2023/06/12 07:52:40;;;;;;;2.38;1.90;;;;;;;;;;4944327;28;20090;-46
2023/06/12 07:55:07;;;;;;;2.20;2.00;;;;;;;;;;4943127;28;20461;-46
2023/06/12 07:57:32;;;;;;;3.40;1.83;;;;;;;;;;4924956;29;20509;-46
2023/06/12 07:59:58;;;;;;;4.13;1.80;;;;;;;;;;4943779;28;20031;-45
2023/06/12 08:02:28;;;;;;;2.20;2.10;;;;;;;;;;4940115;28;20082;-45
2023/06/12 08:04:55;;;;;;;3.35;1.90;;;;;;;;;;4944769;28;20034;-48
2023/06/12 08:07:21;;;;;;;4.45;1.85;;;;;;;;;;4940814;28;20039;-49
2023/06/12 08:09:47;;;;;;;3.22;1.80;;;;;;;;;;4944642;28;20050;-47
2023/06/12 08:12:13;;;;;;;8.20;1.65;;;;;;;;;;4947966;28;20047;-50
2023/06/12 08:14:39;;;;;;;2.65;1.70;;;;;;;;;;4947928;28;20114;-51
2023/06/12 08:17:04;;;;;;;7.75;2.47;;;;;;;;;;4945409;28;20066;-48
2023/06/12 08:19:32;;;;;;;3.90;2.30;;;;;;;;;;4948684;28;20034;-50
2023/06/12 08:21:58;;;;;;;4.18;2.28;;;;;;;;;;4949193;28;20611;-47
2023/06/12 08:24:29;;;;;;;2.90;1.80;;;;;;;;;;4944522;28;20020;-45
2023/06/12 08:26:55;;;;;;;2.05;1.77;;;;;;;;;;4943791;28;20504;-48
2023/06/12 08:29:20;;;;;;;8.60;2.33;;;;;;;;;;4943217;28;20082;-48
2023/06/12 08:31:46;;;;;;;5.53;2.00;;;;;;;;;;4948910;28;20043;-51
2023/06/12 08:34:11;;;;;;;2.70;2.22;;;;;;;;;;4949275;28;20038;-46
2023/06/12 08:36:37;;;;;;;4.35;1.98;;;;;;;;;;4944325;28;20046;-47
2023/06/12 08:39:03;;;;;;;2.75;1.85;;;;;;;;;;4943598;28;20050;-47
2023/06/12 08:41:33;;;;;;;3.45;1.88;;;;;;;;;;4946355;28;20180;-48
2023/06/12 08:44:00;;;;;;;3.08;2.03;;;;;;;;;;4944362;28;20048;-48
2023/06/12 08:46:29;;;;;;;2.40;2.15;;;;;;;;;;4948785;28;20065;-49
2023/06/12 08:48:56;;;;;;;1.95;1.77;;;;;;;;;;4944037;28;20042;-48
2023/06/12 08:51:23;;;;;;;2.78;1.80;;;;;;;;;;4948092;28;20054;-48
2023/06/12 08:53:48;;;;;;;2.22;1.80;;;;;;;;;;4947134;28;20045;-49
2023/06/12 08:56:13;;;;;;;3.45;2.33;;;;;;;;;;4946295;28;20024;-51
2023/06/12 08:58:39;;;;;;;2.55;2.13;;;;;;;;;;4948188;28;20019;-47
2023/06/12 09:01:06;;;;;;;3.42;2.55;;;;;;;;;;4947288;28;20148;-49
2023/06/12 09:03:35;;;;;;;5.07;2.25;;;;;;;;;;4946440;28;20031;-45
2023/06/12 09:06:05;;;;;;;4.57;2.28;;;;;;;;;;4945303;28;20131;-45
2023/06/12 09:08:31;;;;;;;4.88;2.65;;;;;;;;;;4944723;28;20326;-46
2023/06/12 09:10:58;;;;;;;5.20;2.30;;;;;;;;;;4949971;28;20108;-47
2023/06/12 09:13:23;;;;;;;5.13;2.45;;;;;;;;;;4945745;28;20524;-47
2023/06/12 09:15:53;;;;;;;3.40;2.10;;;;;;;;;;4942991;28;20100;-48
2023/06/12 09:18:19;;;;;;;4.10;2.67;;;;;;;;;;4946621;28;20652;-46
2023/06/12 09:20:45;;;;;;;3.10;2.60;;;;;;;;;;4944769;28;20039;-50
2023/06/12 09:23:12;;;;;;;4.32;3.13;;;;;;;;;;4943257;28;20118;-45
2023/06/12 09:25:43;;;;;;;5.35;3.30;;;;;;;;;;4947557;28;20023;-49
2023/06/12 09:28:10;;;;;;;4.28;2.80;;;;;;;;;;4943160;28;20035;-53
2023/06/12 09:30:40;;;;;;;10.18;2.58;;;;;;;;;;4946285;28;20027;-51
2023/06/12 09:33:06;;;;;;;4.78;2.88;;;;;;;;;;4946316;28;20428;-47
2023/06/12 09:35:32;;;;;;;20.92;3.60;;;;;;;;;;4943889;28;20035;-47
2023/06/12 09:37:58;;;;;;;5.90;3.28;;;;;;;;;;4943812;28;20098;-48
2023/06/12 09:40:23;;;;;;;4.18;3.58;;;;;;;;;;4946240;28;20035;-50
2023/06/12 09:42:49;;;;;;;8.90;4.65;;;;;;;;;;4942879;28;20086;-52
2023/06/12 09:45:20;;;;;;;6.72;3.25;;;;;;;;;;4946426;28;20019;-51
2023/06/12 09:47:52;;;;;;;6.00;3.42;;;;;;;;;;4940651;28;20051;-50
2023/06/12 09:50:22;;;;;;;4.22;3.10;;;;;;;;;;4946678;28;20035;-45
2023/06/12 09:52:48;;;;;;;4.72;3.33;;;;;;;;;;4944396;28;20048;-46
2023/06/12 09:55:16;;;;;;;10.38;3.28;;;;;;;;;;4947072;28;20554;-47
2023/06/12 09:57:52;;;;;;;5.40;3.13;;;;;;;;;;4945475;28;20077;-46
2023/06/12 10:00:19;;;;;;;6.50;3.30;;;;;;;;;;4946587;28;20383;-45
2023/06/12 10:03:00;;;;;;;3.58;3.05;;;;;;;;;;4943940;28;21680;-51
2023/06/12 10:05:38;;;;;;;3.92;3.00;;;;;;;;;;4942794;28;20043;-49
2023/06/12 10:08:05;;;;;;;7.30;2.97;;;;;;;;;;4941432;28;20441;-46
2023/06/12 10:10:31;;;;;;;4.40;3.33;;;;;;;;;;4945985;28;20035;-47
2023/06/12 10:12:59;;;;;;;3.80;3.13;;;;;;;;;;4948452;28;20062;-46
2023/06/12 10:15:26;;;;;;;5.22;2.83;;;;;;;;;;4946084;28;20039;-48
2023/06/12 10:17:52;;;;;;;5.72;3.13;;;;;;;;;;4944052;28;20147;-50
2023/06/12 10:20:18;;;;;;;3.83;3.53;;;;;;;;;;4940550;28;20123;-46
2023/06/12 10:22:45;;;;;;;5.18;3.80;;;;;;;;;;4944688;28;20059;-45
2023/06/12 10:25:11;;;;;;;4.80;3.10;;;;;;;;;;4944398;28;20043;-49
2023/06/12 10:27:38;;;;;;;6.68;3.30;;;;;;;;;;4947243;28;20078;-51
2023/06/12 10:30:08;;;;;;;8.45;3.75;;;;;;;;;;4942102;28;20024;-52
2023/06/12 10:32:34;;;;;;;8.85;3.10;;;;;;;;;;4944542;28;20031;-46
2023/06/12 10:35:01;;;;;;;4.63;3.33;;;;;;;;;;4942907;28;20042;-51
2023/06/12 10:37:46;;;;;;;3.60;3.10;;;;;;;;;;4944589;28;20074;-49
2023/06/12 10:40:12;;;;;;;6.03;4.05;;;;;;;;;;4943594;28;20026;-48
2023/06/12 10:42:53;;;;;;;3.17;2.95;;;;;;;;;;4946207;28;20051;-49
2023/06/12 10:45:23;;;;;;;3.25;3.00;;;;;;;;;;4943413;28;20083;-49
2023/06/12 10:48:04;;;;;;;3.08;2.80;;;;;;;;;;4941566;28;20050;-47
2023/06/12 10:50:30;;;;;;;5.93;2.95;;;;;;;;;;4946579;28;20069;-51
2023/06/12 10:52:56;;;;;;;2.95;2.75;;;;;;;;;;4947260;28;20942;-53
2023/06/12 10:55:29;;;;;;;4.38;2.90;;;;;;;;;;4948295;28;20027;-50
2023/06/12 10:57:56;;;;;;;3.17;2.97;;;;;;;;;;4946118;28;20039;-48
2023/06/12 11:00:32;;;;;;;5.00;3.03;;;;;;;;;;4943795;28;20118;-48
2023/06/12 11:03:00;;;;;;;2.97;2.78;;;;;;;;;;4941880;28;20198;-46
2023/06/12 11:05:27;;;;;;;2.60;2.50;;;;;;;;;;4948668;28;20488;-48
2023/06/12 11:08:11;;;;;;;2.70;2.50;;;;;;;;;;4941957;28;20069;-49
2023/06/12 11:10:37;;;;;;;2.72;2.53;;;;;;;;;;4940520;28;20031;-45
2023/06/12 11:13:03;;;;;;;6.93;2.50;;;;;;;;;;4945345;28;20061;-48
2023/06/12 11:15:43;;;;;;;5.15;2.60;;;;;;;;;;4944175;28;20033;-47
2023/06/12 11:18:10;;;;;;;2.33;2.13;;;;;;;;;;4942560;28;20133;-46
2023/06/12 11:20:35;;;;;;;2.63;2.40;;;;;;;;;;4945290;28;20027;-46
2023/06/12 11:23:01;;;;;;;2.85;2.60;;;;;;;;;;4936006;28;20527;-49
2023/06/12 11:25:27;;;;;;;3.22;2.33;;;;;;;;;;4942614;28;20118;-49
2023/06/12 11:27:54;;;;;;;3.78;2.90;;;;;;;;;;4941451;28;20032;-51
2023/06/12 11:30:19;;;;;;;2.70;2.50;;;;;;;;;;4942334;28;20583;-46
2023/06/12 11:32:45;;;;;;;5.57;2.40;;;;;;;;;;4944621;28;20126;-47
2023/06/12 11:35:11;;;;;;;2.30;2.10;;;;;;;;;;4946175;28;20086;-46
2023/06/12 11:37:38;;;;;;;5.13;2.40;;;;;;;;;;4944651;28;20086;-50
2023/06/12 11:40:09;;;;;;;2.85;2.58;;;;;;;;;;4942369;28;20094;-49
2023/06/12 11:42:40;;;;;;;4.07;2.80;;;;;;;;;;4944718;28;20042;-52
2023/06/12 11:45:15;;;;;;;3.17;2.50;;;;;;;;;;4945847;28;20027;-53
2023/06/12 11:47:43;;;;;;;2.28;2.10;;;;;;;;;;4946274;28;20035;-52
2023/06/12 11:50:15;;;;;;;3.00;2.70;;;;;;;;;;4951357;28;20027;-49
2023/06/12 11:52:42;;;;;;;4.82;3.00;;;;;;;;;;4949294;28;20043;-53
2023/06/12 11:55:13;;;;;;;3.25;2.85;;;;;;;;;;4950038;28;20035;-48
2023/06/12 11:57:39;;;;;;;2.85;2.65;;;;;;;;;;4946750;28;20069;-45
2023/06/12 12:00:12;;;;;;;6.30;2.90;;;;;;;;;;4949131;28;20480;-49
2023/06/12 12:02:41;;;;;;;7.10;2.90;;;;;;;;;;4946815;28;20035;-48
2023/06/12 12:05:11;;;;;;;3.63;3.33;;;;;;;;;;4953435;28;20091;-48
2023/06/12 12:07:40;;;;;;;4.18;3.00;;;;;;;;;;4947218;28;20055;-51
2023/06/12 12:10:14;;;;;;;6.50;2.72;;;;;;;;;;4951187;28;20031;-50
2023/06/12 12:12:58;;;;;;;4.95;2.75;;;;;;;;;;4947411;28;20290;-48
2023/06/12 12:15:23;;;;;;;6.88;2.70;;;;;;;;;;4943914;28;20028;-48
2023/06/12 12:17:49;;;;;;;4.97;2.60;;;;;;;;;;4949651;28;20538;-51
2023/06/12 12:20:25;;;;;;;5.47;2.47;;;;;;;;;;4947638;28;20075;-47
2023/06/12 12:22:58;;;;;;;4.30;2.50;;;;;;;;;;4949130;28;20649;-48
2023/06/12 12:25:29;;;;;;;5.28;3.20;;;;;;;;;;4945554;28;20081;-52
2023/06/12 12:27:56;;;;;;;5.15;3.05;;;;;;;;;;4948184;28;20432;-48
2023/06/12 12:30:21;;;;;;;2.65;2.45;;;;;;;;;;4950997;28;20035;-53
2023/06/12 12:32:50;;;;;;;3.22;2.85;;;;;;;;;;4949216;28;20045;-49
2023/06/12 12:35:16;;;;;;;3.65;2.47;;;;;;;;;;4949143;28;20036;-50
2023/06/12 12:37:43;;;;;;;8.18;3.03;;;;;;;;;;4934326;29;20035;-46
2023/06/12 12:40:10;;;;;;;3.20;2.72;;;;;;;;;;4950325;28;20445;-46
2023/06/12 12:42:40;;;;;;;4.95;2.65;;;;;;;;;;4945288;28;20031;-51
2023/06/12 12:45:08;;;;;;;4.90;2.97;;;;;;;;;;4947851;28;20031;-47
2023/06/12 12:47:34;;;;;;;4.95;2.60;;;;;;;;;;4947172;28;20054;-53
2023/06/12 12:50:00;;;;;;;5.03;2.72;;;;;;;;;;4948885;28;20114;-53
2023/06/12 12:52:25;;;;;;;4.40;2.80;;;;;;;;;;4948541;28;20098;-49
2023/06/12 12:54:51;;;;;;;3.88;2.72;;;;;;;;;;4949582;28;20035;-45
2023/06/12 12:57:16;;;;;;;4.93;2.70;;;;;;;;;;4951163;28;20118;-46
2023/06/12 12:59:43;;;;;;;3.25;2.50;;;;;;;;;;4939123;28;20019;-46
2023/06/12 13:02:08;;;;;;;3.17;2.40;;;;;;;;;;4947121;28;20166;-47
2023/06/12 13:04:34;;;;;;;2.63;2.42;;;;;;;;;;4930824;28;20102;-46
2023/06/12 13:06:59;;;;;;;7.13;2.45;;;;;;;;;;4949382;28;20036;-47
2023/06/12 13:09:25;;;;;;;3.80;2.92;;;;;;;;;;4944488;28;20060;-48
2023/06/12 13:11:50;;;;;;;3.42;2.90;;;;;;;;;;4948114;28;20130;-52
2023/06/12 13:14:18;;;;;;;3.72;2.50;;;;;;;;;;4943244;28;20061;-50
2023/06/12 13:16:43;;;;;;;2.40;2.20;;;;;;;;;;4944679;28;20035;-47
2023/06/12 13:19:09;;;;;;;4.68;2.47;;;;;;;;;;4949155;28;20079;-46
2023/06/12 13:21:34;;;;;;;6.63;2.72;;;;;;;;;;4945235;28;20032;-46
2023/06/12 13:24:00;;;;;;;2.42;2.28;;;;;;;;;;4945883;28;20038;-47
2023/06/12 13:26:25;;;;;;;2.25;2.05;;;;;;;;;;4948017;28;20365;-49
2023/06/12 13:28:52;;;;;;;3.95;2.03;;;;;;;;;;4947266;28;20023;-54
2023/06/12 13:31:18;;;;;;;4.90;2.30;;;;;;;;;;4944074;28;20512;-47
2023/06/12 13:33:43;;;;;;;4.55;2.60;;;;;;;;;;4945425;28;20027;-47
2023/06/12 13:36:09;;;;;;;3.60;2.30;;;;;;;;;;4942607;28;20115;-47
2023/06/12 13:38:34;;;;;;;2.42;2.20;;;;;;;;;;4947900;28;20030;-49
2023/06/12 13:41:00;;;;;;;8.48;3.10;;;;;;;;;;4942682;28;20031;-48
2023/06/12 13:43:25;;;;;;;2.95;2.22;;;;;;;;;;4943600;28;20031;-46
2023/06/12 13:45:55;;;;;;;3.35;2.58;;;;;;;;;;4946633;28;20031;-46
2023/06/12 13:48:21;;;;;;;5.90;2.47;;;;;;;;;;4944218;28;20087;-47
2023/06/12 13:50:46;;;;;;;3.63;2.67;;;;;;;;;;4948787;28;20031;-46
2023/06/12 13:53:13;;;;;;;3.45;2.58;;;;;;;;;;4942904;28;20054;-50
2023/06/12 13:55:39;;;;;;;4.15;2.60;;;;;;;;;;4947039;28;20111;-51
2023/06/12 13:58:08;;;;;;;7.95;2.90;;;;;;;;;;4941356;28;20126;-53
2023/06/12 14:00:34;;;;;;;3.97;2.50;;;;;;;;;;4944491;28;20547;-48
2023/06/12 14:02:59;;;;;;;9.68;2.60;;;;;;;;;;4944460;28;20031;-50
2023/06/12 14:05:25;;;;;;;4.45;2.40;;;;;;;;;;4945273;28;20027;-54
2023/06/12 14:07:51;;;;;;;4.47;2.40;;;;;;;;;;4943807;28;20062;-53
2023/06/12 14:10:16;;;;;;;8.88;2.75;;;;;;;;;;4943084;28;20491;-49
2023/06/12 14:12:42;;;;;;;4.90;2.60;;;;;;;;;;4948840;28;20105;-48
2023/06/12 14:15:08;;;;;;;7.80;2.35;;;;;;;;;;4941523;28;20035;-50
2023/06/12 14:17:33;;;;;;;2.95;2.70;;;;;;;;;;4942818;28;20035;-47
2023/06/12 14:19:59;;;;;;;6.07;2.80;;;;;;;;;;4947254;28;20031;-48
2023/06/12 14:22:24;;;;;;;4.38;3.38;;;;;;;;;;4943243;28;20134;-51
2023/06/12 14:24:50;;;;;;;4.55;3.10;;;;;;;;;;4942585;28;20038;-48
2023/06/12 14:27:15;;;;;;;2.83;2.63;;;;;;;;;;4943938;28;20051;-46
2023/06/12 14:29:40;;;;;;;4.25;2.53;;;;;;;;;;4942262;28;20485;-51
2023/06/12 14:32:08;;;;;;;5.30;2.40;;;;;;;;;;4945739;28;20376;-48
2023/06/12 14:34:33;;;;;;;5.72;2.80;;;;;;;;;;4949176;28;20102;-47
2023/06/12 14:36:59;;;;;;;4.57;3.67;;;;;;;;;;4946172;28;20134;-49
2023/06/12 14:39:24;;;;;;;3.22;2.80;;;;;;;;;;4944589;28;20042;-48
2023/06/12 14:41:50;;;;;;;3.90;2.97;;;;;;;;;;4945297;28;20127;-52